createdAt,value
2018-02-15T00:02:27.318Z,25.02
2018-02-15T00:04:55.449Z,23.17
2018-02-15T00:07:23.591Z,21.80
2018-02-15T00:09:51.710Z,22.60
2018-02-15T00:12:19.886Z,21.35
2018-02-15T00:14:48.796Z,21.00
2018-02-15T00:17:16.957Z,22.67
2018-02-15T00:19:45.201Z,19.80
2018-02-15T00:22:13.344Z,21.95
2018-02-15T00:24:41.469Z,21.83
2018-02-15T00:27:09.613Z,21.15
2018-02-15T00:29:37.747Z,22.90
2018-02-15T00:32:05.902Z,26.37
2018-02-15T00:34:34.034Z,25.55
2018-02-15T00:37:02.182Z,28.20
2018-02-15T00:39:30.309Z,24.02
2018-02-15T00:41:58.445Z,28.45
2018-02-15T00:44:26.602Z,24.83
2018-02-15T00:46:54.752Z,24.85
2018-02-15T00:49:23.659Z,21.90
2018-02-15T00:51:51.799Z,27.48
2018-02-15T00:54:19.935Z,29.50
2018-02-15T00:56:48.883Z,29.30
2018-02-15T00:59:17.010Z,29.73
2018-02-15T01:01:45.160Z,26.33
2018-02-15T01:04:13.287Z,30.35
2018-02-15T01:06:41.440Z,29.50
2018-02-15T01:09:09.564Z,32.33
2018-02-15T01:11:37.709Z,30.92
2018-02-15T01:14:05.842Z,31.37
2018-02-15T01:16:34.748Z,32.45
2018-02-15T01:19:02.889Z,34.47
2018-02-15T01:21:31.809Z,31.90
2018-02-15T01:23:59.934Z,32.33
2018-02-15T01:26:28.111Z,32.97
2018-02-15T01:28:56.607Z,34.92
2018-02-15T01:31:25.508Z,34.53
2018-02-15T01:33:53.650Z,36.67
2018-02-15T01:36:21.781Z,37.22
2018-02-15T01:38:49.933Z,34.28
2018-02-15T01:41:18.078Z,36.90
2018-02-15T01:43:47.009Z,38.95
2018-02-15T01:46:15.145Z,38.30
2018-02-15T01:48:44.060Z,36.75
2018-02-15T01:51:12.190Z,37.55
2018-02-15T01:53:40.320Z,40.12
2018-02-15T01:56:08.440Z,38.05
2018-02-15T01:58:37.348Z,36.40
2018-02-15T02:01:05.498Z,38.00
2018-02-15T02:03:33.666Z,38.67
2018-02-15T02:06:01.776Z,37.75
2018-02-15T02:08:29.939Z,38.53
2018-02-15T02:10:58.377Z,38.40
2018-02-15T02:13:26.512Z,38.47
2018-02-15T02:15:54.652Z,36.40
2018-02-15T02:18:23.547Z,37.97
2018-02-15T02:20:51.688Z,37.75
2018-02-15T02:23:19.823Z,37.67
2018-02-15T02:25:47.957Z,35.83
2018-02-15T02:28:16.089Z,36.08
2018-02-15T02:30:44.239Z,36.42
2018-02-15T02:33:12.348Z,32.38
2018-02-15T02:35:40.496Z,35.92
2018-02-15T02:38:08.656Z,34.60
2018-02-15T02:40:36.881Z,35.10
2018-02-15T02:43:05.780Z,37.35
2018-02-15T02:45:33.915Z,36.33
2018-02-15T02:48:02.048Z,36.55
2018-02-15T02:50:30.187Z,34.53
2018-02-15T02:52:58.470Z,37.00
2018-02-15T02:55:26.613Z,35.58
2018-02-15T02:57:54.829Z,33.80
2018-02-15T03:00:22.971Z,35.78
2018-02-15T03:02:51.904Z,35.53
2018-02-15T03:05:20.035Z,36.97
2018-02-15T03:07:48.928Z,35.45
2018-02-15T03:10:17.896Z,33.92
2018-02-15T03:12:46.146Z,35.08
2018-02-15T03:15:14.637Z,34.25
2018-02-15T03:17:42.792Z,33.90
2018-02-15T03:20:10.913Z,34.90
2018-02-15T03:22:39.818Z,32.53
2018-02-15T03:25:07.939Z,30.77
2018-02-15T03:27:36.085Z,31.20
2018-02-15T03:30:04.229Z,30.92
2018-02-15T03:32:32.377Z,33.78
2018-02-15T03:35:00.500Z,31.25
2018-02-15T03:37:28.648Z,31.55
2018-02-15T03:39:56.776Z,30.17
2018-02-15T03:55:15.460Z,30.85
2018-02-15T03:57:43.621Z,30.48
2018-02-15T04:00:11.901Z,30.67
2018-02-15T04:02:40.032Z,29.73
2018-02-15T04:05:09.726Z,31.05
2018-02-15T04:07:37.825Z,28.17
2018-02-15T04:10:06.750Z,32.50
2018-02-15T04:12:34.904Z,32.42
2018-02-15T04:15:03.044Z,33.13
2018-02-15T04:17:31.944Z,30.25
2018-02-15T04:20:00.099Z,28.75
2018-02-15T04:22:28.219Z,28.75
2018-02-15T04:24:56.361Z,31.30
2018-02-15T04:27:24.501Z,28.08
2018-02-15T04:29:52.736Z,28.75
2018-02-15T04:32:20.865Z,30.30
2018-02-15T04:34:49.076Z,30.65
2018-02-15T04:37:17.210Z,30.00
2018-02-15T04:39:46.093Z,31.67
2018-02-15T04:42:15.754Z,28.55
2018-02-15T04:44:43.872Z,30.35
2018-02-15T04:47:12.030Z,30.23
2018-02-15T04:49:40.156Z,28.15
2018-02-15T04:52:08.432Z,29.15
2018-02-15T04:54:36.572Z,27.77
2018-02-15T04:57:04.717Z,28.52
2018-02-15T04:59:32.844Z,26.02
2018-02-15T05:02:01.004Z,27.65
2018-02-15T05:04:29.139Z,30.12
2018-02-15T05:06:57.276Z,26.95
2018-02-15T05:09:25.405Z,27.92
2018-02-15T05:11:54.384Z,28.17
2018-02-15T05:14:22.666Z,28.17
2018-02-15T05:16:50.782Z,30.30
2018-02-15T05:19:18.917Z,26.62
2018-02-15T05:21:47.065Z,27.05
2018-02-15T05:24:15.189Z,30.37
2018-02-15T05:26:43.879Z,30.92
2018-02-15T05:29:11.980Z,29.23
2018-02-15T05:31:40.110Z,29.42
2018-02-15T05:34:08.251Z,26.45
2018-02-15T05:36:37.145Z,26.02
2018-02-15T05:39:06.052Z,28.27
2018-02-15T05:41:34.181Z,26.80
2018-02-15T05:44:02.316Z,27.33
2018-02-15T05:46:30.452Z,26.15
2018-02-15T05:48:58.628Z,26.10
2018-02-15T05:51:26.889Z,24.02
2018-02-15T05:53:55.204Z,24.50
2018-02-15T05:56:23.449Z,23.40
2018-02-15T05:58:52.417Z,24.40
2018-02-15T06:01:20.540Z,24.45
2018-02-15T06:03:48.681Z,26.10
2018-02-15T06:06:16.813Z,24.10
2018-02-15T06:08:46.456Z,24.45
2018-02-15T06:11:14.608Z,24.90
2018-02-15T06:13:42.744Z,24.10
2018-02-15T06:16:10.868Z,25.45
2018-02-15T06:18:39.769Z,23.77
2018-02-15T06:21:07.905Z,26.42
2018-02-15T06:23:36.050Z,27.42
2018-02-15T06:26:04.172Z,25.75
2018-02-15T06:28:33.077Z,25.00
2018-02-15T06:31:01.206Z,25.95
2018-02-15T06:33:29.356Z,26.45
2018-02-15T06:35:57.487Z,25.55
2018-02-15T06:38:25.620Z,23.45
2018-02-15T06:40:53.738Z,26.40
2018-02-15T06:43:21.888Z,26.45
2018-02-15T06:45:50.781Z,24.40
2018-02-15T06:48:18.949Z,25.98
2018-02-15T06:50:47.925Z,23.87
2018-02-15T06:53:16.830Z,25.67
2018-02-15T06:55:45.717Z,25.85
2018-02-15T06:58:14.925Z,22.17
2018-02-15T07:00:43.108Z,24.08
2018-02-15T07:03:11.272Z,24.02
2018-02-15T07:05:39.404Z,24.52
2018-02-15T07:08:07.556Z,25.30
2018-02-15T07:10:35.740Z,24.40
2018-02-15T07:13:03.890Z,24.45
2018-02-15T07:15:32.037Z,24.27
2018-02-15T07:18:00.185Z,26.17
2018-02-15T07:20:29.066Z,25.33
2018-02-15T07:22:57.976Z,24.70
2018-02-15T07:25:26.104Z,23.23
2018-02-15T07:27:54.252Z,23.25
2018-02-15T07:30:22.377Z,22.23
2018-02-15T07:32:51.285Z,23.55
2018-02-15T07:35:19.424Z,23.75
2018-02-15T07:37:48.312Z,24.25
2018-02-15T07:40:17.271Z,22.83
2018-02-15T07:42:45.375Z,23.83
2018-02-15T07:45:14.277Z,24.87
2018-02-15T07:47:43.182Z,25.88
2018-02-15T07:50:11.332Z,24.05
2018-02-15T07:52:40.219Z,23.87
2018-02-15T07:55:09.133Z,25.23
2018-02-15T07:57:37.265Z,27.23
2018-02-15T08:00:05.400Z,24.83
2018-02-15T08:02:33.700Z,22.87
2018-02-15T08:05:01.860Z,23.27
2018-02-15T08:07:29.993Z,23.98
2018-02-15T08:09:58.156Z,22.80
2018-02-15T08:12:26.317Z,21.25
2018-02-15T08:14:55.227Z,22.80
2018-02-15T08:17:23.353Z,21.00
2018-02-15T08:19:51.495Z,22.62
2018-02-15T08:22:20.385Z,22.50
2018-02-15T08:24:48.545Z,22.65
2018-02-15T08:27:16.772Z,22.40
2018-02-15T08:29:45.693Z,21.20
2018-02-15T08:32:13.816Z,21.58
2018-02-15T08:34:41.964Z,21.40
2018-02-15T08:37:10.092Z,21.73
2018-02-15T08:39:38.241Z,19.80
2018-02-15T08:42:06.398Z,21.37
2018-02-15T08:44:34.534Z,19.12
2018-02-15T08:47:02.673Z,20.20
2018-02-15T08:49:31.596Z,18.10
2018-02-15T08:51:59.731Z,17.50
2018-02-15T08:54:27.890Z,17.70
2018-02-15T08:56:56.016Z,17.75
2018-02-15T08:59:24.157Z,17.92
2018-02-15T09:01:52.294Z,17.30
2018-02-15T09:04:21.226Z,18.05
2018-02-15T09:06:49.357Z,17.30
2018-02-15T09:09:17.500Z,17.48
2018-02-15T09:11:45.669Z,16.20
2018-02-15T09:14:31.919Z,15.07
2018-02-15T09:17:00.053Z,17.08
2018-02-15T09:19:28.198Z,15.57
2018-02-15T09:21:56.326Z,15.50
2018-02-15T09:24:26.891Z,14.77
2018-02-15T09:26:55.033Z,15.00
2018-02-15T09:29:23.178Z,16.17
2018-02-15T09:31:51.393Z,15.05
2018-02-15T09:34:19.585Z,14.50
2018-02-15T09:36:48.460Z,14.00
2018-02-15T09:39:16.597Z,14.07
2018-02-15T09:41:44.751Z,12.73
2018-02-15T09:44:12.878Z,12.35
2018-02-15T09:46:41.006Z,12.20
2018-02-15T09:49:09.135Z,11.80
2018-02-15T09:51:37.317Z,12.02
2018-02-15T09:54:05.472Z,12.40
2018-02-15T09:56:33.605Z,11.65
2018-02-15T09:59:02.598Z,11.00
2018-02-15T10:01:31.514Z,11.35
2018-02-15T10:03:59.641Z,10.38
2018-02-15T10:06:27.776Z,10.20
2018-02-15T10:08:55.920Z,9.98
2018-02-15T10:11:24.810Z,10.27
2018-02-15T10:13:52.937Z,10.13
2018-02-15T10:16:21.101Z,10.82
2018-02-15T10:18:49.229Z,10.30
2018-02-15T10:21:17.370Z,10.05
2018-02-15T10:23:46.264Z,10.82
2018-02-15T10:26:15.193Z,10.65
2018-02-15T10:28:43.320Z,9.57
2018-02-15T10:31:12.836Z,9.65
2018-02-15T10:33:42.064Z,10.52
2018-02-15T10:36:12.427Z,10.90
2018-02-15T10:38:41.216Z,10.05
2018-02-15T10:41:09.348Z,9.88
2018-02-15T10:43:37.486Z,9.65
2018-02-15T10:46:05.596Z,9.43
2018-02-15T10:48:39.591Z,7.90
2018-02-15T10:51:07.741Z,10.98
2018-02-15T10:53:35.853Z,9.50
2018-02-15T10:56:04.619Z,8.93
2018-02-15T10:58:32.786Z,9.43
2018-02-15T11:01:06.641Z,8.32
2018-02-15T11:03:36.290Z,9.60
2018-02-15T11:06:05.744Z,9.98
2018-02-15T11:08:35.562Z,9.80
2018-02-15T11:11:06.627Z,8.77
2018-02-15T11:13:39.380Z,8.45
2018-02-15T11:16:09.430Z,9.23
2018-02-15T11:18:39.671Z,9.60
2018-02-15T11:21:10.987Z,9.90
2018-02-15T11:23:41.679Z,9.77
2018-02-15T11:26:12.569Z,10.13
2018-02-15T11:28:41.896Z,9.32
2018-02-15T11:31:11.443Z,9.45
2018-02-15T11:33:39.587Z,8.93
2018-02-15T11:36:07.713Z,8.43
2018-02-15T11:38:35.857Z,9.32
2018-02-15T11:41:03.998Z,8.98
2018-02-15T11:43:32.158Z,8.68
2018-02-15T11:46:00.289Z,8.48
2018-02-15T11:48:28.527Z,9.13
2018-02-15T11:50:57.546Z,9.40
2018-02-15T11:53:25.850Z,8.18
2018-02-15T11:55:53.978Z,9.32
2018-02-15T11:58:22.101Z,8.95
2018-02-15T12:00:50.229Z,9.10
2018-02-15T12:03:18.363Z,9.25
2018-02-15T12:05:46.483Z,10.52
2018-02-15T12:08:14.869Z,10.68
2018-02-15T12:10:42.990Z,10.15
2018-02-15T12:13:11.153Z,9.43
2018-02-15T12:15:39.287Z,9.40
2018-02-15T12:18:07.461Z,10.75
2018-02-15T12:20:35.706Z,9.25
2018-02-15T12:23:03.828Z,12.25
2018-02-15T12:25:31.973Z,10.73
2018-02-15T12:28:00.098Z,9.95
2018-02-15T12:30:28.225Z,9.52
2018-02-15T12:32:56.348Z,9.27
2018-02-15T12:35:24.487Z,9.20
2018-02-15T12:37:52.609Z,8.70
2018-02-15T12:40:20.766Z,9.57
2018-02-15T12:42:48.913Z,9.48
2018-02-15T12:45:17.061Z,8.40
2018-02-15T12:47:45.177Z,8.18
2018-02-15T12:50:13.382Z,10.18
2018-02-15T12:52:41.512Z,9.45
2018-02-15T12:55:09.652Z,9.18
2018-02-15T12:57:37.782Z,9.00
2018-02-15T13:00:05.916Z,9.77
2018-02-15T13:02:34.032Z,9.30
2018-02-15T13:05:02.189Z,11.55
2018-02-15T13:07:31.067Z,9.65
2018-02-15T13:10:00.719Z,9.85
2018-02-15T13:12:40.575Z,10.10
2018-02-15T13:15:20.482Z,9.85
2018-02-15T13:17:48.603Z,10.50
2018-02-15T13:20:18.549Z,10.27
2018-02-15T13:22:49.581Z,9.85
2018-02-15T13:25:17.710Z,9.52
2018-02-15T13:27:57.580Z,10.02
2018-02-15T13:30:26.652Z,11.38
2018-02-15T13:32:54.787Z,10.88
2018-02-15T13:35:23.700Z,11.45
2018-02-15T13:37:51.897Z,10.70
2018-02-15T13:40:20.074Z,10.45
2018-02-15T13:42:48.194Z,9.80
2018-02-15T13:45:17.088Z,10.65
2018-02-15T13:47:45.980Z,11.20
2018-02-15T13:50:14.104Z,11.73
2018-02-15T13:52:42.240Z,11.25
2018-02-15T13:55:10.361Z,13.48
2018-02-15T13:57:39.401Z,11.23
2018-02-15T14:00:07.542Z,12.75
2018-02-15T14:02:36.439Z,12.10
2018-02-15T14:05:05.360Z,14.05
2018-02-15T14:07:33.473Z,11.52
2018-02-15T14:10:01.619Z,13.45
2018-02-15T14:12:29.735Z,12.50
2018-02-15T14:14:58.644Z,14.73
2018-02-15T14:17:26.769Z,16.23
2018-02-15T14:19:54.903Z,13.65
2018-02-15T14:22:23.023Z,18.67
2018-02-15T14:24:51.357Z,15.20
2018-02-15T14:27:19.525Z,14.23
2018-02-15T14:29:47.682Z,16.52
2018-02-15T14:32:15.805Z,17.33
2018-02-15T14:34:43.932Z,18.30
2018-02-15T14:37:12.074Z,19.02
2018-02-15T14:39:40.197Z,15.75
2018-02-15T14:42:08.374Z,16.52
2018-02-15T14:44:37.086Z,15.35
2018-02-15T14:47:05.991Z,20.08
2018-02-15T14:49:34.887Z,18.65
2018-02-15T14:52:03.029Z,19.52
2018-02-15T14:54:31.168Z,20.17
2018-02-15T14:56:59.328Z,21.23
2018-02-15T14:59:27.460Z,19.58
2018-02-15T15:01:56.383Z,16.87
2018-02-15T15:04:24.557Z,20.12
2018-02-15T15:06:52.685Z,17.10
2018-02-15T15:09:21.978Z,14.63
2018-02-15T15:11:50.162Z,17.73
2018-02-15T15:14:18.292Z,19.70
2018-02-15T15:16:46.456Z,21.67
2018-02-15T15:19:14.607Z,23.50
2018-02-15T15:21:42.841Z,17.52
2018-02-15T15:24:10.993Z,19.52
2018-02-15T15:26:39.147Z,21.85
2018-02-15T15:29:07.277Z,21.55
2018-02-15T15:31:35.437Z,22.17
2018-02-15T15:34:03.582Z,20.88
2018-02-15T15:36:32.368Z,19.90
2018-02-15T15:39:00.505Z,21.08
2018-02-15T15:41:28.682Z,20.48
2018-02-15T15:43:56.817Z,18.87
2018-02-15T15:46:26.064Z,19.40
2018-02-15T15:48:55.723Z,24.55
2018-02-15T15:51:23.844Z,20.95
2018-02-15T15:53:51.985Z,20.75
2018-02-15T15:56:20.519Z,17.12
2018-02-15T15:58:48.637Z,21.00
2018-02-15T16:01:16.791Z,18.95
2018-02-15T16:03:44.937Z,18.48
2018-02-15T16:06:13.063Z,17.05
2018-02-15T16:08:42.505Z,20.25
2018-02-15T16:11:11.704Z,18.17
2018-02-15T16:13:41.417Z,17.67
2018-02-15T16:16:10.297Z,20.20
2018-02-15T16:18:40.944Z,19.15
2018-02-15T16:21:10.194Z,17.20
2018-02-15T16:23:38.975Z,19.85
2018-02-15T16:26:07.435Z,18.85
2018-02-15T16:28:36.226Z,18.77
2018-02-15T16:31:06.481Z,19.20
2018-02-15T16:33:37.767Z,19.10
2018-02-15T16:36:07.554Z,21.60
2018-02-15T16:38:36.832Z,25.00
2018-02-15T16:41:05.009Z,21.05
2018-02-15T16:43:35.661Z,22.00
2018-02-15T16:46:05.835Z,25.98
2018-02-15T16:48:33.990Z,26.17
2018-02-15T16:51:05.293Z,21.95
2018-02-15T16:53:33.720Z,21.87
2018-02-15T16:56:03.084Z,22.62
2018-02-15T16:58:31.969Z,23.60
2018-02-15T17:01:01.848Z,25.42
2018-02-15T17:03:31.685Z,26.20
2018-02-15T17:06:01.033Z,28.38
2018-02-15T17:08:29.649Z,26.27
2018-02-15T17:10:58.913Z,26.70
2018-02-15T17:13:27.554Z,23.75
2018-02-15T17:15:55.704Z,26.87
2018-02-15T17:18:23.830Z,25.42
2018-02-15T17:20:52.356Z,31.12
2018-02-15T17:23:20.480Z,26.23
2018-02-15T17:25:48.622Z,26.30
2018-02-15T17:28:16.748Z,27.05
2018-02-15T17:30:45.662Z,30.85
2018-02-15T17:33:13.894Z,23.83
2018-02-15T17:35:42.056Z,24.52
2018-02-15T17:38:10.196Z,24.23
2018-02-15T17:40:38.660Z,27.50
2018-02-15T17:43:06.803Z,28.20
2018-02-15T17:45:34.972Z,27.92
2018-02-15T17:48:03.201Z,29.80
2018-02-15T17:50:31.337Z,28.17
2018-02-15T17:53:00.285Z,29.60
2018-02-15T17:55:28.526Z,26.92
2018-02-15T17:57:56.664Z,33.38
2018-02-15T18:00:24.883Z,33.38
2018-02-15T18:02:53.040Z,28.75
2018-02-15T18:05:21.853Z,26.55
2018-02-15T18:07:54.325Z,29.48
2018-02-15T18:10:22.985Z,30.15
2018-02-15T18:12:53.144Z,34.47
2018-02-15T18:15:21.627Z,27.65
2018-02-15T18:17:50.316Z,31.60
2018-02-15T18:20:22.911Z,25.75
2018-02-15T18:22:53.642Z,32.00
2018-02-15T18:25:24.128Z,27.77
2018-02-15T18:27:53.829Z,25.88
2018-02-15T18:30:22.744Z,27.98
2018-02-15T18:32:50.921Z,37.92
2018-02-15T18:35:19.076Z,36.90
2018-02-15T18:37:48.171Z,35.45
2018-02-15T18:40:16.368Z,49.42
2018-02-15T18:42:46.102Z,58.87
2018-02-15T18:45:14.450Z,44.67
2018-02-15T18:47:43.196Z,39.22
2018-02-15T18:50:11.426Z,40.85
2018-02-15T18:52:39.664Z,39.47
2018-02-15T18:55:08.614Z,41.55
2018-02-15T18:57:37.421Z,40.28
2018-02-15T19:00:11.887Z,36.95
2018-02-15T19:02:40.172Z,43.28
2018-02-15T19:05:09.083Z,39.13
2018-02-15T19:07:37.397Z,43.92
2018-02-15T19:10:05.508Z,42.85
2018-02-15T19:12:34.408Z,41.65
2018-02-15T19:15:03.949Z,42.62
2018-02-15T19:17:32.455Z,39.53
2018-02-15T19:20:00.576Z,43.08
2018-02-15T19:22:29.056Z,43.00
2018-02-15T19:24:57.948Z,45.25
2018-02-15T19:27:26.076Z,37.05
2018-02-15T19:29:54.210Z,41.95
2018-02-15T19:32:22.346Z,36.78
2018-02-15T19:34:51.240Z,44.75
2018-02-15T19:37:19.396Z,41.35
2018-02-15T19:39:48.314Z,48.80
2018-02-15T19:42:16.498Z,49.05
2018-02-15T19:44:44.643Z,34.40
2018-02-15T19:47:13.521Z,40.47
2018-02-15T19:49:41.689Z,44.28
2018-02-15T19:52:09.889Z,46.13
2018-02-15T19:54:38.029Z,51.40
2018-02-15T19:57:06.182Z,46.42
2018-02-15T19:59:34.320Z,57.13
2018-02-15T20:02:02.474Z,50.35
2018-02-15T20:04:30.625Z,61.50
2018-02-15T20:06:59.530Z,57.97
2018-02-15T20:09:28.426Z,57.83
2018-02-15T20:11:56.585Z,58.47
2018-02-15T20:14:25.491Z,50.20
2018-02-15T20:16:53.631Z,59.78
2018-02-15T20:19:21.781Z,64.40
2018-02-15T20:21:50.322Z,58.53
2018-02-15T20:24:18.488Z,56.58
2018-02-15T20:26:52.156Z,65.10
2018-02-15T20:29:20.315Z,41.42
2018-02-15T20:31:49.958Z,51.40
2018-02-15T20:34:18.101Z,59.05
2018-02-15T20:36:46.229Z,56.90
2018-02-15T20:39:20.053Z,56.03
2018-02-15T20:41:48.186Z,54.78
2018-02-15T20:44:17.099Z,42.92
2018-02-15T20:46:45.221Z,54.13
2018-02-15T20:49:19.798Z,50.08
2018-02-15T20:51:53.643Z,45.20
2018-02-15T20:54:28.229Z,55.22
2018-02-15T20:56:56.406Z,52.88
2018-02-15T20:59:24.565Z,55.17
2018-02-15T21:01:52.690Z,46.47
2018-02-15T21:04:21.604Z,59.10
2018-02-15T21:06:49.744Z,65.03
2018-02-15T21:09:18.672Z,56.95
2018-02-15T21:11:46.836Z,62.20
2018-02-15T21:14:15.016Z,63.92
2018-02-15T21:16:43.149Z,65.85
2018-02-15T21:19:12.120Z,67.00
2018-02-15T21:21:40.343Z,60.00
2018-02-15T21:24:08.465Z,60.60
2018-02-15T21:26:36.981Z,62.72
2018-02-15T21:29:05.113Z,59.55
2018-02-15T21:31:33.257Z,53.53
2018-02-15T21:34:01.392Z,62.97
2018-02-15T21:36:30.401Z,56.03
2018-02-15T21:38:58.525Z,49.33
2018-02-15T21:41:26.706Z,48.05
2018-02-15T21:43:54.829Z,45.00
2018-02-15T21:46:22.980Z,57.00
2018-02-15T21:48:51.110Z,43.13
2018-02-15T21:51:19.321Z,60.70
2018-02-15T21:53:48.347Z,45.15
2018-02-15T21:56:18.048Z,51.15
2018-02-15T21:58:46.187Z,62.90
2018-02-15T22:01:15.069Z,46.55
2018-02-15T22:03:43.980Z,66.82
2018-02-15T22:06:12.111Z,61.78
2018-02-15T22:08:40.236Z,55.63
2018-02-15T22:11:08.457Z,60.97
2018-02-15T22:13:36.615Z,45.92
2018-02-15T22:16:04.727Z,46.92
2018-02-15T22:18:33.673Z,44.88
2018-02-15T22:21:04.678Z,44.53
2018-02-15T22:23:32.928Z,45.80
2018-02-15T22:26:01.066Z,44.92
2018-02-15T22:28:29.382Z,44.58
2018-02-15T22:30:58.325Z,51.67
2018-02-15T22:33:27.240Z,43.60
2018-02-15T22:36:05.710Z,41.20
2018-02-15T22:38:33.852Z,48.78
2018-02-15T22:41:01.992Z,42.80
2018-02-15T22:43:30.158Z,55.22
2018-02-15T22:45:59.042Z,65.30
2018-02-15T22:48:27.174Z,72.03
2018-02-15T22:50:55.392Z,43.33
2018-02-15T22:53:23.516Z,45.10
2018-02-15T22:55:51.654Z,44.55
2018-02-15T22:58:19.790Z,39.50
2018-02-15T23:00:47.912Z,56.50
2018-02-15T23:03:16.052Z,46.20
2018-02-15T23:05:44.186Z,40.50
2018-02-15T23:08:12.347Z,37.33
2018-02-15T23:10:40.467Z,43.22
2018-02-15T23:13:09.389Z,46.47
2018-02-15T23:15:37.529Z,42.05
2018-02-15T23:18:06.418Z,57.00
2018-02-15T23:20:35.685Z,42.67
2018-02-15T23:23:03.796Z,43.78
2018-02-15T23:25:32.700Z,40.95
2018-02-15T23:28:00.831Z,44.03
2018-02-15T23:30:28.957Z,48.55
2018-02-15T23:32:57.085Z,41.70
2018-02-15T23:35:25.972Z,41.10
2018-02-15T23:37:54.118Z,50.00
2018-02-15T23:40:22.232Z,40.53
2018-02-15T23:42:51.146Z,43.25
2018-02-15T23:45:19.264Z,39.78
2018-02-15T23:47:47.401Z,42.25
2018-02-15T23:50:15.521Z,40.42
2018-02-15T23:52:44.425Z,40.12
2018-02-15T23:55:13.317Z,36.72
2018-02-15T23:57:42.217Z,43.30
